createdAt,value
2018-04-22T00:00:23.415Z,66.50
2018-04-22T00:02:53.084Z,66.40
2018-04-22T00:05:23.563Z,66.70
2018-04-22T00:07:53.454Z,66.70
2018-04-22T00:10:22.822Z,67.60
2018-04-22T00:12:53.318Z,68.70
2018-04-22T00:15:23.027Z,68.80
2018-04-22T00:17:52.751Z,68.30
2018-04-22T00:20:22.461Z,67.90
2018-04-22T00:22:52.192Z,67.70
2018-04-22T00:25:22.382Z,67.10
2018-04-22T00:27:52.106Z,67.70
2018-04-22T00:30:22.579Z,67.60
2018-04-22T00:32:53.251Z,67.90
2018-04-22T00:35:22.963Z,67.90
2018-04-22T00:37:52.695Z,68.80
2018-04-22T00:40:23.167Z,68.40
2018-04-22T00:42:53.833Z,69.30
2018-04-22T00:45:23.544Z,69.30
2018-04-22T00:47:53.446Z,68.90
2018-04-22T00:50:23.156Z,68.70
2018-04-22T00:52:52.877Z,68.70
2018-04-22T00:55:22.588Z,68.50
2018-04-22T00:57:52.303Z,68.30
2018-04-22T01:00:21.995Z,68.80
2018-04-22T01:02:51.890Z,69.30
2018-04-22T01:05:22.371Z,69.40
2018-04-22T01:07:52.859Z,69.90
2018-04-22T01:10:22.559Z,69.90
2018-04-22T01:12:52.323Z,70.00
2018-04-22T01:15:22.448Z,70.00
2018-04-22T01:17:52.350Z,70.00
2018-04-22T01:20:22.045Z,69.90
2018-04-22T01:22:51.768Z,69.90
2018-04-22T01:25:21.458Z,69.70
2018-04-22T01:27:51.371Z,70.20
2018-04-22T01:30:21.071Z,70.40
2018-04-22T01:32:50.784Z,70.80
2018-04-22T01:35:20.488Z,70.50
2018-04-22T01:37:50.187Z,70.60
2018-04-22T01:40:19.902Z,70.80
2018-04-22T01:42:49.608Z,70.70
2018-04-22T01:45:19.283Z,70.50
2018-04-22T01:47:49.371Z,70.80
2018-04-22T01:50:19.080Z,70.60
2018-04-22T01:52:48.991Z,71.30
2018-04-22T01:55:18.704Z,71.30
2018-04-22T01:57:48.603Z,71.00
2018-04-22T02:00:18.299Z,71.50
2018-04-22T02:02:48.190Z,72.10
2018-04-22T02:05:17.887Z,72.10
2018-04-22T02:07:48.554Z,72.30
2018-04-22T02:10:18.260Z,72.30
2018-04-22T02:12:48.164Z,72.30
2018-04-22T02:15:17.863Z,72.20
2018-04-22T02:17:47.769Z,72.30
2018-04-22T02:20:17.500Z,72.80
2018-04-22T02:22:47.226Z,72.50
2018-04-22T02:25:16.932Z,72.40
2018-04-22T02:27:46.828Z,72.40
2018-04-22T02:30:16.523Z,72.50
2018-04-22T02:32:46.415Z,72.60
2018-04-22T02:35:16.863Z,73.10
2018-04-22T02:37:47.518Z,73.10
2018-04-22T02:40:17.219Z,73.00
2018-04-22T02:42:47.176Z,73.10
2018-04-22T02:45:16.865Z,73.10
2018-04-22T02:47:46.765Z,73.40
2018-04-22T02:50:16.464Z,73.30
2018-04-22T02:52:46.364Z,73.20
2018-04-22T02:55:16.804Z,73.40
2018-04-22T02:57:46.720Z,73.40
2018-04-22T03:00:16.415Z,73.50
2018-04-22T03:02:46.317Z,73.30
2018-04-22T03:05:16.759Z,73.60
2018-04-22T03:07:47.414Z,73.30
2018-04-22T03:10:17.098Z,73.30
2018-04-22T03:12:46.800Z,73.60
2018-04-22T03:15:16.499Z,73.70
2018-04-22T03:17:46.935Z,74.00
2018-04-22T03:20:16.631Z,74.00
2018-04-22T03:22:46.526Z,73.80
2018-04-22T03:25:16.995Z,73.50
2018-04-22T03:27:46.908Z,73.40
2018-04-22T03:30:16.611Z,74.00
2018-04-22T03:32:46.492Z,73.60
2018-04-22T03:35:16.199Z,74.80
2018-04-22T03:37:46.083Z,73.90
2018-04-22T03:40:15.803Z,74.10
2018-04-22T03:42:45.507Z,74.00
2018-04-22T03:45:15.200Z,73.90
2018-04-22T03:47:45.099Z,73.40
2018-04-22T03:50:14.843Z,73.60
2018-04-22T03:52:44.927Z,74.10
2018-04-22T03:55:14.644Z,74.20
2018-04-22T03:57:44.515Z,73.80
2018-04-22T04:00:15.021Z,74.20
2018-04-22T04:02:44.899Z,74.20
2018-04-22T04:05:14.598Z,74.40
2018-04-22T04:07:44.496Z,74.20
2018-04-22T04:10:14.203Z,73.80
2018-04-22T04:12:44.855Z,74.40
2018-04-22T04:15:14.548Z,74.40
2018-04-22T04:17:43.747Z,74.20
2018-04-22T04:20:24.752Z,74.40
2018-04-22T04:22:54.217Z,74.70
2018-04-22T04:25:36.687Z,75.20
2018-04-22T04:28:06.369Z,75.20
2018-04-22T04:30:36.065Z,75.90
2018-04-22T04:33:05.748Z,75.70
2018-04-22T04:35:36.255Z,76.30
2018-04-22T04:38:05.940Z,76.20
2018-04-22T04:40:35.670Z,76.00
2018-04-22T04:43:05.356Z,76.10
2018-04-22T04:45:35.063Z,76.50
2018-04-22T04:48:04.756Z,76.70
2018-04-22T04:50:34.479Z,76.20
2018-04-22T04:53:04.167Z,76.00
2018-04-22T04:55:33.907Z,75.60
2018-04-22T04:58:03.595Z,76.00
2018-04-22T05:00:33.087Z,76.00
2018-04-22T05:03:02.973Z,75.60
2018-04-22T05:05:32.671Z,74.70
2018-04-22T05:08:02.383Z,74.10
2018-04-22T05:10:32.091Z,74.40
2018-04-22T05:13:01.784Z,74.90
2018-04-22T05:15:31.528Z,74.90
2018-04-22T05:18:01.991Z,74.70
2018-04-22T05:20:31.699Z,74.60
2018-04-22T05:23:01.579Z,74.80
2018-04-22T05:25:32.055Z,75.30
2018-04-22T05:28:01.752Z,75.30
2018-04-22T05:30:31.480Z,74.50
2018-04-22T05:33:01.346Z,75.20
2018-04-22T05:35:31.054Z,75.00
2018-04-22T05:38:01.520Z,75.40
2018-04-22T05:40:31.223Z,75.40
2018-04-22T05:43:00.908Z,76.30
2018-04-22T05:45:30.637Z,75.90
2018-04-22T05:48:00.327Z,76.00
2018-04-22T05:50:30.058Z,76.30
2018-04-22T05:52:59.938Z,75.80
2018-04-22T05:55:30.411Z,75.30
2018-04-22T05:58:00.090Z,75.30
2018-04-22T06:00:29.796Z,76.50
2018-04-22T06:02:59.686Z,76.50
2018-04-22T06:05:30.143Z,75.50
2018-04-22T06:07:59.851Z,75.50
2018-04-22T06:10:29.552Z,75.50
2018-04-22T06:12:59.263Z,75.40
2018-04-22T06:15:28.959Z,75.20
2018-04-22T06:17:59.457Z,73.50
2018-04-22T06:20:29.204Z,73.50
2018-04-22T06:22:58.924Z,72.70
2018-04-22T06:25:28.628Z,72.10
2018-04-22T06:27:58.335Z,70.90
2018-04-22T06:30:28.049Z,71.40
2018-04-22T06:32:58.731Z,70.60
2018-04-22T06:35:28.418Z,69.80
2018-04-22T06:37:57.912Z,69.70
2018-04-22T06:40:27.631Z,69.60
2018-04-22T06:42:57.527Z,70.30
2018-04-22T06:45:29.972Z,69.80
2018-04-22T06:48:00.834Z,66.40
2018-04-22T06:50:30.960Z,67.80
2018-04-22T06:53:00.988Z,68.30
2018-04-22T06:55:30.835Z,65.40
2018-04-22T06:58:00.615Z,66.50
2018-04-22T07:00:30.339Z,65.30
2018-04-22T07:03:00.008Z,64.90
2018-04-22T07:05:30.102Z,64.90
2018-04-22T07:08:00.058Z,64.60
2018-04-22T07:10:29.768Z,63.10
2018-04-22T07:12:59.484Z,63.00
2018-04-22T07:15:29.175Z,61.50
2018-04-22T07:17:58.900Z,59.90
2018-04-22T07:20:28.591Z,59.10
2018-04-22T07:22:59.358Z,58.80
2018-04-22T07:25:29.045Z,58.40
2018-04-22T07:27:58.748Z,57.50
2018-04-22T07:30:28.423Z,56.10
2018-04-22T07:32:58.132Z,57.30
2018-04-22T07:35:27.799Z,57.10
2018-04-22T07:37:57.670Z,57.00
2018-04-22T07:40:28.180Z,56.40
2018-04-22T07:42:57.871Z,56.30
2018-04-22T07:45:27.538Z,55.10
2018-04-22T07:47:57.319Z,54.70
2018-04-22T07:50:26.980Z,54.90
2018-04-22T07:52:56.842Z,54.70
2018-04-22T07:55:26.519Z,53.70
2018-04-22T07:57:56.207Z,54.30
2018-04-22T08:00:25.883Z,55.00
2018-04-22T08:02:56.051Z,52.90
2018-04-22T08:05:25.756Z,54.20
2018-04-22T08:07:55.719Z,52.30
2018-04-22T08:10:25.643Z,53.20
2018-04-22T08:12:55.427Z,54.00
2018-04-22T08:15:24.875Z,54.00
2018-04-22T08:17:55.506Z,53.30
2018-04-22T08:20:25.175Z,53.20
2018-04-22T08:22:55.647Z,52.20
2018-04-22T08:25:25.344Z,52.60
2018-04-22T08:27:55.790Z,52.40
2018-04-22T08:30:25.463Z,51.70
2018-04-22T08:32:55.330Z,50.90
2018-04-22T08:35:25.156Z,51.70
2018-04-22T08:37:55.123Z,51.30
2018-04-22T08:40:24.927Z,52.20
2018-04-22T08:42:54.995Z,50.60
2018-04-22T08:45:24.664Z,51.20
2018-04-22T08:47:55.300Z,50.10
2018-04-22T08:50:25.581Z,50.10
2018-04-22T08:52:55.707Z,50.20
2018-04-22T08:55:25.473Z,49.90
2018-04-22T08:57:55.205Z,50.10
2018-04-22T09:00:24.756Z,51.10
2018-04-22T09:02:55.434Z,50.90
2018-04-22T09:05:25.263Z,50.90
2018-04-22T09:07:55.982Z,50.10
2018-04-22T09:10:25.457Z,50.10
2018-04-22T09:12:55.336Z,50.00
2018-04-22T09:15:25.924Z,49.60
2018-04-22T09:17:56.549Z,49.80
2018-04-22T09:20:26.326Z,49.70
2018-04-22T09:22:56.438Z,50.10
2018-04-22T09:25:25.875Z,49.40
2018-04-22T09:27:55.590Z,48.50
2018-04-22T09:30:26.230Z,45.90
2018-04-22T09:32:56.036Z,45.80
2018-04-22T09:35:26.270Z,46.40
2018-04-22T09:37:58.271Z,46.60
2018-04-22T09:40:28.735Z,46.80
2018-04-22T09:42:58.414Z,46.80
2018-04-22T09:45:28.867Z,44.50
2018-04-22T09:47:59.479Z,45.60
2018-04-22T09:50:29.170Z,45.60
2018-04-22T09:53:00.292Z,47.40
2018-04-22T09:55:30.907Z,47.30
2018-04-22T09:58:00.600Z,46.00
2018-04-22T10:00:31.923Z,45.30
2018-04-22T10:03:07.478Z,45.50
2018-04-22T10:05:44.941Z,45.20
2018-04-22T10:08:15.375Z,46.80
2018-04-22T10:10:45.843Z,45.80
2018-04-22T10:13:16.281Z,46.90
2018-04-22T10:15:45.967Z,46.40
2018-04-22T10:18:15.631Z,46.40
2018-04-22T10:20:45.311Z,44.80
2018-04-22T10:23:14.979Z,47.60
2018-04-22T10:25:44.672Z,47.50
2018-04-22T10:28:15.109Z,45.00
2018-04-22T10:30:44.778Z,44.90
2018-04-22T10:33:14.438Z,44.60
2018-04-22T10:35:44.115Z,44.30
2018-04-22T10:38:14.556Z,42.30
2018-04-22T10:40:44.991Z,43.30
2018-04-22T10:43:14.664Z,43.20
2018-04-22T10:45:44.351Z,45.80
2018-04-22T10:48:14.013Z,43.30
2018-04-22T10:50:43.706Z,44.20
2018-04-22T10:53:14.357Z,44.10
2018-04-22T10:55:44.803Z,45.30
2018-04-22T10:58:14.463Z,45.20
2018-04-22T11:00:44.940Z,43.80
2018-04-22T11:03:14.608Z,43.80
2018-04-22T11:05:45.064Z,44.70
2018-04-22T11:08:14.743Z,44.70
2018-04-22T11:10:44.424Z,43.90
2018-04-22T11:13:14.112Z,46.00
2018-04-22T11:15:43.806Z,42.50
2018-04-22T11:18:13.510Z,40.40
2018-04-22T11:20:43.203Z,42.10
2018-04-22T11:23:12.875Z,39.80
2018-04-22T11:25:42.567Z,38.00
2018-04-22T11:28:12.228Z,38.40
2018-04-22T11:30:41.936Z,38.50
2018-04-22T11:33:12.360Z,41.00
2018-04-22T11:35:42.059Z,40.90
2018-04-22T11:38:12.513Z,38.60
2018-04-22T11:40:42.215Z,38.50
2018-04-22T11:43:11.896Z,39.00
2018-04-22T11:45:41.583Z,38.60
2018-04-22T11:48:10.919Z,38.10
2018-04-22T11:50:41.382Z,39.10
2018-04-22T11:53:11.051Z,38.90
2018-04-22T11:55:41.509Z,39.00
2018-04-22T11:58:11.196Z,38.90
2018-04-22T12:00:40.921Z,38.20
2018-04-22T12:03:10.598Z,38.10
2018-04-22T12:05:41.069Z,39.00
2018-04-22T12:08:10.741Z,39.00
2018-04-22T12:10:41.203Z,38.20
2018-04-22T12:13:10.880Z,37.40
2018-04-22T12:15:41.337Z,38.30
2018-04-22T12:18:11.011Z,38.30
2018-04-22T12:20:41.467Z,37.30
2018-04-22T12:23:11.143Z,37.20
2018-04-22T12:25:41.606Z,37.90
2018-04-22T12:28:11.300Z,37.80
2018-04-22T12:30:41.003Z,38.90
2018-04-22T12:33:11.433Z,39.10
2018-04-22T12:35:41.131Z,39.00
2018-04-22T12:38:11.583Z,39.60
2018-04-22T12:40:41.280Z,39.50
2018-04-22T12:43:11.704Z,38.50
2018-04-22T12:45:41.404Z,38.40
2018-04-22T12:48:11.064Z,37.80
2018-04-22T12:50:40.436Z,36.50
2018-04-22T12:53:10.116Z,36.40
2018-04-22T12:55:39.782Z,38.20
2018-04-22T12:58:09.459Z,38.30
2018-04-22T13:00:39.171Z,37.50
2018-04-22T13:03:09.595Z,37.40
2018-04-22T13:05:39.301Z,37.40
2018-04-22T13:08:08.979Z,37.10
2018-04-22T13:10:38.651Z,36.90
2018-04-22T13:13:08.327Z,36.10
2018-04-22T13:15:38.772Z,36.50
2018-04-22T13:18:08.452Z,36.50
2018-04-22T13:20:38.899Z,37.50
2018-04-22T13:23:08.575Z,37.50
2018-04-22T13:25:38.282Z,37.10
2018-04-22T13:28:08.724Z,36.30
2018-04-22T13:30:38.095Z,36.20
2018-04-22T13:33:07.757Z,37.30
2018-04-22T13:35:37.441Z,37.80
2018-04-22T13:38:07.873Z,37.10
2018-04-22T13:40:37.580Z,37.00
2018-04-22T13:43:07.267Z,38.90
2018-04-22T13:45:37.766Z,37.20
2018-04-22T13:48:07.450Z,37.10
2018-04-22T13:50:37.138Z,37.10
2018-04-22T13:53:07.595Z,38.00
2018-04-22T13:55:37.267Z,37.90
2018-04-22T13:58:06.967Z,37.80
2018-04-22T14:00:37.403Z,38.10
2018-04-22T14:03:07.128Z,37.20
2018-04-22T14:05:36.579Z,37.60
2018-04-22T14:08:06.285Z,36.30
2018-04-22T14:10:35.973Z,36.30
2018-04-22T14:13:05.342Z,37.20
2018-04-22T14:15:35.772Z,37.70
2018-04-22T14:18:06.227Z,37.80
2018-04-22T14:20:35.901Z,37.70
2018-04-22T14:23:05.372Z,37.30
2018-04-22T14:25:35.060Z,38.60
2018-04-22T14:28:04.740Z,39.00
2018-04-22T14:30:34.410Z,38.40
2018-04-22T14:33:04.543Z,38.00
2018-04-22T14:35:34.980Z,37.00
2018-04-22T14:38:04.730Z,37.00
2018-04-22T14:40:34.572Z,37.70
2018-04-22T14:43:04.259Z,35.70
2018-04-22T14:45:45.203Z,37.20
2018-04-22T14:48:14.900Z,38.70
2018-04-22T14:50:44.593Z,39.70
2018-04-22T14:53:15.052Z,36.80
2018-04-22T14:55:44.719Z,36.90
2018-04-22T14:58:15.190Z,39.70
2018-04-22T15:00:44.851Z,39.60
2018-04-22T15:03:14.556Z,40.20
2018-04-22T15:05:44.225Z,40.30
2018-04-22T15:08:13.923Z,39.70
2018-04-22T15:10:43.596Z,39.10
2018-04-22T15:13:13.277Z,39.10
2018-04-22T15:15:42.959Z,39.60
2018-04-22T15:18:12.639Z,36.80
2018-04-22T15:20:42.317Z,38.70
2018-04-22T15:23:11.998Z,38.80
2018-04-22T15:25:41.682Z,39.20
2018-04-22T15:28:11.459Z,39.50
2018-04-22T15:30:41.156Z,39.60
2018-04-22T15:33:10.851Z,40.70
2018-04-22T15:35:40.513Z,40.30
2018-04-22T15:38:10.225Z,38.20
2018-04-22T15:40:39.907Z,38.60
2018-04-22T15:43:10.363Z,38.00
2018-04-22T15:45:40.031Z,37.90
2018-04-22T15:48:09.716Z,39.50
2018-04-22T15:50:39.383Z,39.70
2018-04-22T15:53:09.096Z,41.40
2018-04-22T15:55:39.094Z,40.60
2018-04-22T15:58:09.609Z,40.90
2018-04-22T16:00:39.418Z,40.80
2018-04-22T16:03:09.888Z,40.40
2018-04-22T16:05:39.540Z,40.30
2018-04-22T16:08:09.235Z,43.10
2018-04-22T16:10:38.903Z,39.60
2018-04-22T16:13:08.607Z,39.70
2018-04-22T16:15:38.385Z,39.90
2018-04-22T16:18:08.661Z,40.20
2018-04-22T16:20:38.431Z,41.00
2018-04-22T16:23:09.118Z,41.20
2018-04-22T16:25:38.824Z,41.80
2018-04-22T16:28:08.567Z,41.90
2018-04-22T16:30:38.790Z,43.10
2018-04-22T16:33:08.779Z,42.40
2018-04-22T16:35:38.697Z,42.80
2018-04-22T16:38:08.403Z,43.60
2018-04-22T16:40:38.096Z,43.30
2018-04-22T16:43:07.763Z,43.20
2018-04-22T16:45:38.234Z,45.00
2018-04-22T16:48:07.927Z,45.00
2018-04-22T16:50:37.629Z,44.10
2018-04-22T16:53:07.763Z,43.20
2018-04-22T16:55:38.819Z,42.80
2018-04-22T16:58:08.573Z,42.80
2018-04-22T17:00:39.105Z,42.90
2018-04-22T17:03:09.683Z,42.90
2018-04-22T17:05:39.379Z,42.90
2018-04-22T17:08:09.232Z,42.90
2018-04-22T17:10:39.142Z,42.90
2018-04-22T17:13:09.647Z,44.30
2018-04-22T17:15:39.416Z,44.20
2018-04-22T17:18:09.957Z,43.00
2018-04-22T17:20:39.836Z,42.90
2018-04-22T17:23:10.308Z,43.10
2018-04-22T17:25:40.028Z,43.10
2018-04-22T17:28:09.691Z,42.90
2018-04-22T17:30:40.167Z,43.60
2018-04-22T17:33:09.836Z,43.50
2018-04-22T17:35:39.561Z,43.50
2018-04-22T17:38:10.007Z,43.80
2018-04-22T17:40:39.927Z,43.70
2018-04-22T17:43:09.611Z,44.00
2018-04-22T17:45:39.315Z,44.90
2018-04-22T17:48:09.016Z,44.40
2018-04-22T17:50:38.778Z,43.60
2018-04-22T17:53:08.479Z,44.90
2018-04-22T17:55:37.940Z,44.80
2018-04-22T17:58:07.631Z,45.20
2018-04-22T18:00:37.371Z,44.90
2018-04-22T18:03:07.055Z,44.90
2018-04-22T18:05:36.755Z,45.30
2018-04-22T18:08:06.451Z,45.50
2018-04-22T18:10:36.151Z,44.50
2018-04-22T18:13:05.828Z,45.30
2018-04-22T18:15:35.530Z,46.40
2018-04-22T18:18:05.201Z,46.00
2018-04-22T18:20:34.899Z,44.70
2018-04-22T18:23:04.595Z,45.10
2018-04-22T18:25:34.284Z,46.20
2018-04-22T18:28:03.961Z,46.50
2018-04-22T18:30:34.419Z,48.10
2018-04-22T18:33:04.119Z,48.10
2018-04-22T18:35:34.007Z,48.80
2018-04-22T18:38:04.452Z,49.70
2018-04-22T18:40:34.155Z,49.60
2018-04-22T18:43:04.360Z,48.50
2018-04-22T18:45:34.815Z,48.90
2018-04-22T18:48:05.444Z,50.10
2018-04-22T18:50:35.146Z,50.10
2018-04-22T18:53:04.815Z,50.40
2018-04-22T18:55:34.519Z,51.70
2018-04-22T18:58:04.204Z,52.10
2018-04-22T19:00:33.895Z,52.00
2018-04-22T19:03:03.579Z,51.80
2018-04-22T19:05:33.267Z,51.40
2018-04-22T19:08:02.942Z,52.00
2018-04-22T19:10:32.648Z,51.30
2018-04-22T19:13:02.328Z,51.10
2018-04-22T19:15:32.772Z,51.70
2018-04-22T19:18:02.461Z,51.70
2018-04-22T19:20:32.908Z,52.40
2018-04-22T19:23:02.605Z,52.40
2018-04-22T19:25:32.501Z,53.10
2018-04-22T19:28:03.069Z,51.10
2018-04-22T19:30:32.798Z,51.10
2018-04-22T19:33:02.485Z,51.90
2018-04-22T19:35:32.215Z,52.10
2018-04-22T19:38:01.915Z,52.60
2018-04-22T19:40:31.642Z,53.30
2018-04-22T19:43:01.347Z,53.20
2018-04-22T19:45:30.752Z,53.40
2018-04-22T19:48:00.734Z,53.30
2018-04-22T19:50:30.447Z,53.20
2018-04-22T19:53:00.137Z,54.00
2018-04-22T19:55:29.843Z,54.10
2018-04-22T19:57:59.544Z,54.80
2018-04-22T20:00:29.999Z,55.70
2018-04-22T20:02:59.707Z,55.60
2018-04-22T20:05:29.560Z,55.50
2018-04-22T20:07:59.257Z,55.70
2018-04-22T20:10:28.932Z,56.20
2018-04-22T20:12:58.633Z,56.30
2018-04-22T20:15:29.067Z,57.30
2018-04-22T20:17:58.761Z,57.30
2018-04-22T20:20:28.555Z,57.60
2018-04-22T20:22:58.247Z,57.50
2018-04-22T20:25:27.915Z,58.00
2018-04-22T20:27:57.677Z,58.30
2018-04-22T20:30:27.436Z,58.40
2018-04-22T20:32:57.132Z,58.80
2018-04-22T20:35:26.792Z,59.10
2018-04-22T20:37:56.663Z,58.80
2018-04-22T20:40:26.333Z,58.90
2018-04-22T20:42:56.807Z,59.20
2018-04-22T20:45:26.512Z,59.20
2018-04-22T20:47:56.267Z,59.20
2018-04-22T20:50:26.732Z,60.00
2018-04-22T20:52:57.411Z,59.70
2018-04-22T20:55:27.108Z,59.70
2018-04-22T20:57:56.829Z,59.80
2018-04-22T21:00:26.498Z,60.80
2018-04-22T21:02:56.285Z,59.40
2018-04-22T21:05:25.991Z,59.70
2018-04-22T21:07:55.871Z,60.30
2018-04-22T21:10:25.542Z,59.80
2018-04-22T21:12:55.248Z,60.50
2018-04-22T21:15:24.923Z,60.90
2018-04-22T21:17:54.787Z,60.50
2018-04-22T21:20:24.675Z,60.80
2018-04-22T21:22:54.550Z,61.10
2018-04-22T21:25:24.224Z,61.40
2018-04-22T21:27:53.951Z,60.80
2018-04-22T21:30:23.627Z,60.70
2018-04-22T21:32:53.325Z,61.00
2018-04-22T21:35:23.027Z,60.90
2018-04-22T21:37:53.692Z,60.80
2018-04-22T21:40:23.382Z,60.70
2018-04-22T21:42:53.855Z,60.90
2018-04-22T21:45:23.528Z,60.90
2018-04-22T21:47:53.400Z,61.10
2018-04-22T21:50:23.079Z,61.30
2018-04-22T21:52:52.951Z,61.40
2018-04-22T21:55:22.404Z,61.50
2018-04-22T21:57:52.090Z,61.90
2018-04-22T22:00:21.755Z,61.70
2018-04-22T22:02:51.456Z,61.50
2018-04-22T22:05:21.149Z,61.30
2018-04-22T22:07:51.217Z,61.40
2018-04-22T22:10:20.891Z,61.60
2018-04-22T22:12:50.585Z,62.00
2018-04-22T22:15:20.584Z,62.00
2018-04-22T22:17:50.446Z,62.10
2018-04-22T22:20:20.882Z,61.90
2018-04-22T22:22:50.759Z,61.90
2018-04-22T22:25:20.420Z,61.50
2018-04-22T22:27:50.112Z,61.90
2018-04-22T22:30:20.556Z,62.00
2018-04-22T22:32:51.179Z,61.70
2018-04-22T22:35:21.575Z,61.70
2018-04-22T22:37:51.453Z,61.70
2018-04-22T22:40:21.123Z,62.00
2018-04-22T22:42:50.991Z,62.10
2018-04-22T22:45:20.667Z,62.10
2018-04-22T22:47:50.539Z,62.00
2018-04-22T22:50:20.975Z,62.50
2018-04-22T22:52:50.852Z,62.50
2018-04-22T22:55:20.534Z,62.80
2018-04-22T22:57:50.407Z,63.50
2018-04-22T23:00:23.982Z,64.30
2018-04-22T23:02:53.688Z,64.60
2018-04-22T23:05:23.427Z,64.80
2018-04-22T23:07:53.896Z,64.00
2018-04-22T23:10:23.563Z,63.90
2018-04-22T23:12:54.035Z,64.50
2018-04-22T23:15:23.704Z,64.40
2018-04-22T23:17:53.576Z,64.80
2018-04-22T23:20:23.260Z,64.90
2018-04-22T23:22:52.922Z,65.00
2018-04-22T23:25:22.955Z,65.50
2018-04-22T23:27:53.439Z,65.10
2018-04-22T23:30:23.123Z,65.10
2018-04-22T23:32:53.007Z,65.40
2018-04-22T23:35:23.463Z,65.60
2018-04-22T23:37:53.132Z,65.60
2018-04-22T23:40:23.596Z,64.70
2018-04-22T23:42:53.505Z,64.60
2018-04-22T23:45:23.403Z,64.40
2018-04-22T23:47:53.407Z,64.60
2018-04-22T23:50:23.860Z,64.50
2018-04-22T23:52:54.483Z,64.30
2018-04-22T23:55:24.162Z,64.30
2018-04-22T23:57:54.596Z,64.60
